createdAt,value
2023-01-27T00:01:02.843Z,7.40
2023-01-27T00:03:30.661Z,8.17
2023-01-27T00:05:58.733Z,7.77
2023-01-27T00:08:26.449Z,6.97
2023-01-27T00:11:18.461Z,6.17
2023-01-27T00:13:46.587Z,6.57
2023-01-27T00:16:14.665Z,6.50
2023-01-27T00:18:42.523Z,6.13
2023-01-27T00:21:28.052Z,6.17
2023-01-27T00:24:13.363Z,6.83
2023-01-27T00:26:41.518Z,6.87
2023-01-27T00:29:10.728Z,8.10
2023-01-27T00:31:56.637Z,7.33
2023-01-27T00:34:24.471Z,8.80
2023-01-27T00:36:52.249Z,9.70
2023-01-27T00:39:20.021Z,11.00
2023-01-27T00:41:47.673Z,11.53
2023-01-27T00:44:16.800Z,11.10
2023-01-27T00:46:46.141Z,9.47
2023-01-27T00:49:14.353Z,9.37
2023-01-27T00:51:42.511Z,10.43
2023-01-27T00:54:10.170Z,9.70
2023-01-27T00:56:38.165Z,9.83
2023-01-27T00:59:06.274Z,8.57
2023-01-27T01:01:35.731Z,10.23
2023-01-27T01:04:03.908Z,10.83
2023-01-27T01:06:31.603Z,10.80
2023-01-27T01:08:59.621Z,11.20
2023-01-27T01:11:27.671Z,9.37
2023-01-27T01:13:56.512Z,9.83
2023-01-27T01:16:25.501Z,9.60
2023-01-27T01:18:54.729Z,11.63
2023-01-27T01:21:22.697Z,10.50
2023-01-27T01:23:50.739Z,11.03
2023-01-27T01:26:18.894Z,11.70
2023-01-27T01:28:47.077Z,12.13
2023-01-27T01:31:17.209Z,12.13
2023-01-27T01:33:45.696Z,12.60
2023-01-27T01:36:15.446Z,14.13
2023-01-27T01:38:43.380Z,12.80
2023-01-27T01:41:13.277Z,12.73
2023-01-27T01:43:41.010Z,11.57
2023-01-27T01:46:11.766Z,11.47
2023-01-27T01:48:42.819Z,10.23
2023-01-27T01:51:13.712Z,8.70
2023-01-27T01:53:45.420Z,9.00
2023-01-27T01:56:15.811Z,9.97
2023-01-27T01:58:45.172Z,10.00
2023-01-27T02:01:14.198Z,8.90
2023-01-27T02:03:43.563Z,9.10
2023-01-27T02:06:12.075Z,8.97
2023-01-27T02:08:41.398Z,10.20
2023-01-27T02:11:11.254Z,10.57
2023-01-27T02:13:39.369Z,10.53
2023-01-27T02:16:07.662Z,10.80
2023-01-27T02:18:35.435Z,12.07
2023-01-27T02:21:03.500Z,10.83
2023-01-27T02:23:39.004Z,12.30
2023-01-27T02:26:10.483Z,12.17
2023-01-27T02:28:38.552Z,11.87
2023-01-27T02:31:06.419Z,13.93
2023-01-27T02:33:34.398Z,12.03
2023-01-27T02:36:04.207Z,15.73
2023-01-27T02:38:34.215Z,19.47
2023-01-27T02:41:05.089Z,16.07
2023-01-27T02:43:34.851Z,16.60
2023-01-27T02:46:02.811Z,16.30
2023-01-27T02:48:30.804Z,17.83
2023-01-27T02:50:58.485Z,17.23
2023-01-27T02:53:26.556Z,15.47
2023-01-27T02:55:54.322Z,15.80
2023-01-27T02:58:22.010Z,13.20
2023-01-27T03:00:51.445Z,13.90
2023-01-27T03:03:20.414Z,12.13
2023-01-27T03:05:48.320Z,15.20
2023-01-27T03:08:16.013Z,13.67
2023-01-27T03:10:44.228Z,17.60
2023-01-27T03:13:12.060Z,14.27
2023-01-27T03:15:57.214Z,11.87
2023-01-27T03:18:26.782Z,11.57
2023-01-27T03:21:01.666Z,11.43
2023-01-27T03:23:29.474Z,12.00
2023-01-27T03:25:57.222Z,11.50
2023-01-27T03:28:25.156Z,13.13
2023-01-27T03:30:53.384Z,12.60
2023-01-27T03:33:21.543Z,10.80
2023-01-27T03:36:04.747Z,9.83
2023-01-27T03:38:49.891Z,9.30
2023-01-27T03:41:35.551Z,9.40
2023-01-27T03:44:20.856Z,10.43
2023-01-27T03:46:50.713Z,11.10
2023-01-27T03:49:18.546Z,11.57
2023-01-27T03:51:47.583Z,11.83
2023-01-27T03:54:16.234Z,12.77
2023-01-27T03:56:44.937Z,12.97
2023-01-27T03:59:12.667Z,19.57
2023-01-27T04:01:40.488Z,21.27
2023-01-27T04:04:26.133Z,19.40
2023-01-27T04:07:07.381Z,22.90
2023-01-27T04:09:36.549Z,22.27
2023-01-27T04:12:04.803Z,19.70
2023-01-27T04:14:33.329Z,19.60
2023-01-27T04:17:01.884Z,17.17
2023-01-27T04:19:29.976Z,19.10
2023-01-27T04:21:59.511Z,15.47
2023-01-27T04:24:27.276Z,14.37
2023-01-27T04:26:56.515Z,14.40
2023-01-27T04:29:24.997Z,13.57
2023-01-27T04:31:52.990Z,13.97
2023-01-27T04:34:21.239Z,13.10
2023-01-27T04:36:49.523Z,13.30
2023-01-27T04:39:19.436Z,12.80
2023-01-27T04:41:47.493Z,11.37
2023-01-27T04:44:15.554Z,11.20
2023-01-27T04:46:43.698Z,12.27
2023-01-27T04:49:14.289Z,8.13
2023-01-27T04:51:42.158Z,10.80
2023-01-27T04:54:10.042Z,10.27
2023-01-27T04:56:40.213Z,10.13
2023-01-27T04:59:09.141Z,8.00
2023-01-27T05:01:37.088Z,6.87
2023-01-27T05:04:04.948Z,6.50
2023-01-27T05:06:33.220Z,5.70
2023-01-27T05:09:01.490Z,5.33
2023-01-27T05:11:29.283Z,4.83
2023-01-27T05:13:59.563Z,6.37
2023-01-27T05:16:27.683Z,6.60
2023-01-27T05:18:56.326Z,7.47
2023-01-27T05:21:24.691Z,10.87
2023-01-27T05:23:52.646Z,14.17
2023-01-27T05:26:22.155Z,14.83
2023-01-27T05:28:51.160Z,19.20
2023-01-27T05:31:21.128Z,19.23
2023-01-27T05:33:50.078Z,24.20
2023-01-27T05:36:19.129Z,18.57
2023-01-27T05:38:46.940Z,16.43
2023-01-27T05:41:15.422Z,16.80
2023-01-27T05:43:44.374Z,13.43
2023-01-27T05:46:13.651Z,14.57
2023-01-27T05:48:43.707Z,14.63
2023-01-27T05:51:14.830Z,15.87
2023-01-27T05:53:43.073Z,18.37
2023-01-27T05:56:11.499Z,16.20
2023-01-27T05:58:39.735Z,13.53
2023-01-27T06:01:08.397Z,13.60
2023-01-27T06:03:36.411Z,12.73
2023-01-27T06:06:06.242Z,12.20
2023-01-27T06:08:34.008Z,12.50
2023-01-27T06:11:01.924Z,10.90
2023-01-27T06:13:30.282Z,10.03
2023-01-27T06:15:58.421Z,8.80
2023-01-27T06:18:26.263Z,9.73
2023-01-27T06:20:54.124Z,9.40
2023-01-27T06:23:23.300Z,9.47
2023-01-27T06:25:51.572Z,8.43
2023-01-27T06:28:30.081Z,8.80
2023-01-27T06:30:58.074Z,9.30
2023-01-27T06:33:28.701Z,9.90
2023-01-27T06:36:01.528Z,9.37
2023-01-27T06:38:32.851Z,9.23
2023-01-27T06:41:01.052Z,9.40
2023-01-27T06:43:28.842Z,9.97
2023-01-27T06:45:57.691Z,9.10
2023-01-27T06:48:25.969Z,8.03
2023-01-27T06:50:53.811Z,8.17
2023-01-27T06:53:21.735Z,8.63
2023-01-27T06:55:55.990Z,8.17
2023-01-27T06:58:23.740Z,9.37
2023-01-27T07:00:51.703Z,9.10
2023-01-27T07:03:19.511Z,7.80
2023-01-27T07:05:47.303Z,8.70
2023-01-27T07:08:15.441Z,8.00
2023-01-27T07:10:43.566Z,8.10
2023-01-27T07:13:13.508Z,8.47
2023-01-27T07:15:42.627Z,8.33
2023-01-27T07:18:11.014Z,7.53
2023-01-27T07:20:40.592Z,7.20
2023-01-27T07:23:08.570Z,7.50
2023-01-27T07:25:36.611Z,8.37
2023-01-27T07:28:05.760Z,7.93
2023-01-27T07:30:35.513Z,8.10
2023-01-27T07:33:06.369Z,8.00
2023-01-27T07:35:36.678Z,9.57
2023-01-27T07:38:05.061Z,7.93
2023-01-27T07:40:33.079Z,8.10
2023-01-27T07:43:00.908Z,8.20
2023-01-27T07:45:30.268Z,8.43
2023-01-27T07:48:02.814Z,10.23
2023-01-27T07:50:30.681Z,9.33
2023-01-27T07:53:00.082Z,8.20
2023-01-27T07:55:28.433Z,7.90
2023-01-27T07:57:56.257Z,7.77
2023-01-27T08:00:24.474Z,7.33
2023-01-27T08:02:52.970Z,7.90
2023-01-27T08:05:22.846Z,8.03
2023-01-27T08:07:50.747Z,9.03
2023-01-27T08:10:20.213Z,8.83
2023-01-27T08:12:48.168Z,9.70
2023-01-27T08:15:18.642Z,13.33
2023-01-27T08:17:54.018Z,6.97
2023-01-27T08:20:23.282Z,6.83
2023-01-27T08:22:51.232Z,8.20
2023-01-27T08:25:20.490Z,7.60
2023-01-27T08:27:50.655Z,9.83
2023-01-27T08:30:19.054Z,5.87
2023-01-27T08:32:48.069Z,7.57
2023-01-27T08:35:16.381Z,8.40
2023-01-27T08:37:48.241Z,7.70
2023-01-27T08:40:16.652Z,9.10
2023-01-27T08:42:44.613Z,7.57
2023-01-27T08:45:12.805Z,7.40
2023-01-27T08:47:40.724Z,6.60
2023-01-27T08:50:09.414Z,5.40
2023-01-27T08:52:37.743Z,5.70
2023-01-27T08:55:07.235Z,6.03
2023-01-27T08:57:36.880Z,7.13
2023-01-27T09:00:06.730Z,6.33
2023-01-27T09:02:34.679Z,6.83
2023-01-27T09:05:02.995Z,6.50
2023-01-27T09:07:31.539Z,7.63
2023-01-27T09:10:13.141Z,7.33
2023-01-27T09:12:43.998Z,6.77
2023-01-27T09:15:12.162Z,7.57
2023-01-27T09:17:39.894Z,8.73
2023-01-27T09:20:08.465Z,4.60
2023-01-27T09:22:36.811Z,8.20
2023-01-27T09:25:04.579Z,5.87
2023-01-27T09:27:39.292Z,8.60
2023-01-27T09:30:11.459Z,6.27
2023-01-27T09:32:39.393Z,5.43
2023-01-27T09:35:07.653Z,5.50
2023-01-27T09:37:39.838Z,5.73
2023-01-27T09:40:12.432Z,8.40
2023-01-27T09:42:58.477Z,4.87
2023-01-27T09:45:36.684Z,5.97
2023-01-27T09:48:12.302Z,5.60
2023-01-27T09:50:53.095Z,6.27
2023-01-27T09:53:28.305Z,5.40
2023-01-27T09:55:59.275Z,5.63
2023-01-27T09:58:30.353Z,7.17
2023-01-27T10:01:05.854Z,6.37
2023-01-27T10:03:43.659Z,7.03
2023-01-27T10:06:30.247Z,10.80
2023-01-27T10:09:17.088Z,13.50
2023-01-27T10:11:50.501Z,9.27
2023-01-27T10:14:23.453Z,11.77
2023-01-27T10:17:01.685Z,5.67
2023-01-27T10:19:34.791Z,5.57
2023-01-27T10:22:09.026Z,6.57
2023-01-27T10:24:44.359Z,8.87
2023-01-27T10:27:16.689Z,7.80
2023-01-27T10:29:46.714Z,11.70
2023-01-27T10:32:22.386Z,7.00
2023-01-27T10:34:54.044Z,9.10
2023-01-27T10:37:28.356Z,6.60
2023-01-27T10:40:01.356Z,7.63
2023-01-27T10:42:32.523Z,5.57
2023-01-27T10:45:20.332Z,6.73
2023-01-27T10:47:54.441Z,5.83
2023-01-27T10:50:24.769Z,15.73
2023-01-27T10:52:57.670Z,7.90
2023-01-27T10:55:27.186Z,9.37
2023-01-27T10:57:57.297Z,19.03
2023-01-27T11:03:23.335Z,9.43
2023-01-27T11:05:53.517Z,7.37
2023-01-27T11:08:23.544Z,15.60
2023-01-27T11:11:12.048Z,10.57
2023-01-27T11:13:40.110Z,6.50
2023-01-27T11:16:14.283Z,8.07
2023-01-27T11:18:46.213Z,7.60
2023-01-27T11:21:19.270Z,8.27
2023-01-27T11:23:51.922Z,6.47
2023-01-27T11:26:25.664Z,7.23
2023-01-27T11:28:56.906Z,6.50
2023-01-27T11:31:30.015Z,12.27
2023-01-27T11:34:08.114Z,9.23
2023-01-27T11:36:37.176Z,5.80
2023-01-27T11:39:06.899Z,9.07
2023-01-27T11:41:36.730Z,7.70
2023-01-27T11:44:08.303Z,7.70
2023-01-27T11:46:36.913Z,7.17
2023-01-27T11:49:07.714Z,8.07
2023-01-27T11:51:37.469Z,7.77
2023-01-27T11:54:07.600Z,9.03
2023-01-27T11:56:37.099Z,9.20
2023-01-27T11:59:06.858Z,8.17
2023-01-27T12:01:40.069Z,9.83
2023-01-27T12:04:12.765Z,8.40
2023-01-27T12:06:44.837Z,8.73
2023-01-27T12:09:30.739Z,7.90
2023-01-27T12:12:10.607Z,7.23
2023-01-27T12:14:38.490Z,8.73
2023-01-27T12:17:07.331Z,10.30
2023-01-27T12:19:41.503Z,8.73
2023-01-27T12:22:11.316Z,7.57
2023-01-27T12:24:41.489Z,8.03
2023-01-27T12:27:17.612Z,9.43
2023-01-27T12:29:48.895Z,10.13
2023-01-27T12:32:18.834Z,9.67
2023-01-27T12:34:50.892Z,8.57
2023-01-27T12:37:23.227Z,7.83
2023-01-27T12:39:53.303Z,7.27
2023-01-27T12:42:47.317Z,5.17
2023-01-27T12:45:26.078Z,6.07
2023-01-27T12:48:01.840Z,5.73
2023-01-27T12:50:31.717Z,5.20
2023-01-27T12:53:05.528Z,5.83
2023-01-27T12:55:34.293Z,6.93
2023-01-27T12:58:04.454Z,6.03
2023-01-27T13:00:33.184Z,5.03
2023-01-27T13:03:05.027Z,5.47
2023-01-27T13:05:38.774Z,5.53
2023-01-27T13:08:07.327Z,5.87
2023-01-27T13:10:35.803Z,5.70
2023-01-27T13:13:05.247Z,5.73
2023-01-27T13:15:33.279Z,6.17
2023-01-27T13:18:01.651Z,6.10
2023-01-27T13:20:30.449Z,6.40
2023-01-27T13:23:01.862Z,6.47
2023-01-27T13:25:31.024Z,6.77
2023-01-27T13:27:59.903Z,6.00
2023-01-27T13:30:32.301Z,5.73
2023-01-27T13:33:02.721Z,6.00
2023-01-27T13:35:33.636Z,6.27
2023-01-27T13:38:04.199Z,6.43
2023-01-27T13:40:33.466Z,5.90
2023-01-27T13:43:05.512Z,5.37
2023-01-27T13:45:38.816Z,6.57
2023-01-27T13:48:10.466Z,6.53
2023-01-27T13:50:41.643Z,6.53
2023-01-27T13:53:11.880Z,8.17
2023-01-27T13:55:51.352Z,7.47
2023-01-27T13:58:22.900Z,7.00
2023-01-27T14:00:57.291Z,7.93
2023-01-27T14:03:35.237Z,8.23
2023-01-27T14:06:10.078Z,7.43
2023-01-27T14:08:56.254Z,7.97
2023-01-27T14:11:27.864Z,6.97
2023-01-27T14:14:03.868Z,7.40
2023-01-27T14:16:36.677Z,7.67
2023-01-27T14:19:07.120Z,7.40
2023-01-27T14:21:44.352Z,7.37
2023-01-27T14:24:24.494Z,7.33
2023-01-27T14:26:55.512Z,7.17
2023-01-27T14:29:28.752Z,6.87
2023-01-27T14:32:00.225Z,7.57
2023-01-27T14:34:33.907Z,7.60
2023-01-27T14:37:07.649Z,6.70
2023-01-27T14:39:40.816Z,7.83
2023-01-27T14:42:11.450Z,7.87
2023-01-27T14:44:55.840Z,8.10
2023-01-27T14:47:33.145Z,7.77
2023-01-27T14:50:08.423Z,7.63
2023-01-27T14:52:44.384Z,8.37
2023-01-27T14:55:26.983Z,7.40
2023-01-27T14:57:59.101Z,7.70
2023-01-27T15:00:32.112Z,7.43
2023-01-27T15:03:05.102Z,7.83
2023-01-27T15:05:38.028Z,7.70
2023-01-27T15:08:10.789Z,7.03
2023-01-27T15:10:42.513Z,7.70
2023-01-27T15:13:25.083Z,6.83
2023-01-27T15:16:00.095Z,7.17
2023-01-27T15:18:35.098Z,6.13
2023-01-27T15:21:12.776Z,6.90
2023-01-27T15:23:55.684Z,6.90
2023-01-27T15:26:24.451Z,7.43
2023-01-27T15:28:52.763Z,9.83
2023-01-27T15:31:27.164Z,10.17
2023-01-27T15:33:58.443Z,9.10
2023-01-27T15:36:34.478Z,11.83
2023-01-27T15:39:03.198Z,9.37
2023-01-27T15:41:33.433Z,9.97
2023-01-27T15:44:06.047Z,8.47
2023-01-27T15:46:37.021Z,9.57
2023-01-27T15:49:06.075Z,10.17
2023-01-27T15:51:36.764Z,9.13
2023-01-27T15:54:05.233Z,7.93
2023-01-27T15:56:43.171Z,8.23
2023-01-27T15:59:15.324Z,6.70
2023-01-27T16:01:44.632Z,6.60
2023-01-27T16:04:16.917Z,6.70
2023-01-27T16:06:52.538Z,7.07
2023-01-27T16:09:29.525Z,7.43
2023-01-27T16:12:00.950Z,7.57
2023-01-27T16:14:49.280Z,7.00
2023-01-27T16:17:21.594Z,8.47
2023-01-27T16:19:54.268Z,7.23
2023-01-27T16:22:23.895Z,7.17
2023-01-27T16:24:56.420Z,7.27
2023-01-27T16:27:33.477Z,6.63
2023-01-27T16:30:08.494Z,6.97
2023-01-27T16:32:39.408Z,7.67
2023-01-27T16:35:08.568Z,7.93
2023-01-27T16:37:39.269Z,6.93
2023-01-27T16:40:14.562Z,7.33
2023-01-27T16:42:46.403Z,7.57
2023-01-27T16:45:18.715Z,8.10
2023-01-27T16:47:50.113Z,6.70
2023-01-27T16:50:35.298Z,6.83
2023-01-27T16:53:04.863Z,6.57
2023-01-27T16:55:33.175Z,6.53
2023-01-27T16:58:01.668Z,6.50
2023-01-27T17:00:30.556Z,6.93
2023-01-27T17:03:00.764Z,9.67
2023-01-27T17:05:28.790Z,10.37
2023-01-27T17:08:04.019Z,6.50
2023-01-27T17:10:35.660Z,6.50
2023-01-27T17:13:03.891Z,6.13
2023-01-27T17:15:34.891Z,8.93
2023-01-27T17:18:05.862Z,10.33
2023-01-27T17:20:35.648Z,9.03
2023-01-27T17:23:05.602Z,6.90
2023-01-27T17:25:34.831Z,6.40
2023-01-27T17:28:04.587Z,7.03
2023-01-27T17:30:35.483Z,6.67
2023-01-27T17:33:06.494Z,7.93
2023-01-27T17:35:35.714Z,9.37
2023-01-27T17:38:11.311Z,7.43
2023-01-27T17:40:41.555Z,6.50
2023-01-27T17:43:26.084Z,6.87
2023-01-27T17:46:09.102Z,6.43
2023-01-27T17:48:41.332Z,8.13
2023-01-27T17:51:09.924Z,7.83
2023-01-27T17:53:40.753Z,7.47
2023-01-27T17:56:12.511Z,6.63
2023-01-27T17:58:40.316Z,7.60
2023-01-27T18:01:09.469Z,7.20
2023-01-27T18:03:38.946Z,7.43
2023-01-27T18:06:10.706Z,6.60
2023-01-27T18:08:38.651Z,6.77
2023-01-27T18:11:10.281Z,8.70
2023-01-27T18:13:39.349Z,8.20
2023-01-27T18:16:14.098Z,5.80
2023-01-27T18:18:43.698Z,6.20
2023-01-27T18:21:16.751Z,7.40
2023-01-27T18:23:46.767Z,5.30
2023-01-27T18:26:23.295Z,6.00
2023-01-27T18:28:53.529Z,7.00
2023-01-27T18:31:23.467Z,9.30
2023-01-27T18:34:00.035Z,7.60
2023-01-27T18:36:35.537Z,9.73
2023-01-27T18:39:04.378Z,7.13
2023-01-27T18:41:35.499Z,7.20
2023-01-27T18:44:04.163Z,6.30
2023-01-27T18:46:32.023Z,6.80
2023-01-27T18:49:01.915Z,5.73
2023-01-27T18:51:29.935Z,5.80
2023-01-27T18:53:57.679Z,6.87
2023-01-27T18:56:25.502Z,5.03
2023-01-27T18:58:54.363Z,6.17
2023-01-27T19:01:23.994Z,6.73
2023-01-27T19:03:52.485Z,5.93
2023-01-27T19:06:22.072Z,5.40
2023-01-27T19:08:52.210Z,6.50
2023-01-27T19:11:19.863Z,5.80
2023-01-27T19:13:48.831Z,5.33
2023-01-27T19:16:17.964Z,5.70
2023-01-27T19:18:45.962Z,6.27
2023-01-27T19:21:15.094Z,6.60
2023-01-27T19:23:45.056Z,7.03
2023-01-27T19:26:16.575Z,7.83
2023-01-27T19:28:45.482Z,6.30
2023-01-27T19:31:13.377Z,6.67
2023-01-27T19:33:44.001Z,6.60
2023-01-27T19:36:23.764Z,6.63
2023-01-27T19:38:56.918Z,6.30
2023-01-27T19:41:24.675Z,6.70
2023-01-27T19:43:52.580Z,6.37
2023-01-27T19:46:23.437Z,6.27
2023-01-27T19:48:52.049Z,6.87
2023-01-27T19:51:20.283Z,11.50
2023-01-27T19:53:48.210Z,6.33
2023-01-27T19:56:18.387Z,8.93
2023-01-27T19:58:50.017Z,8.43
2023-01-27T20:01:18.229Z,6.70
2023-01-27T20:03:47.654Z,9.57
2023-01-27T20:06:17.207Z,9.30
2023-01-27T20:08:45.088Z,7.10
2023-01-27T20:11:28.972Z,6.30
2023-01-27T20:13:56.899Z,6.57
2023-01-27T20:16:25.868Z,6.63
2023-01-27T20:18:54.145Z,6.23
2023-01-27T20:21:25.233Z,6.37
2023-01-27T20:23:53.230Z,5.87
2023-01-27T20:26:22.758Z,6.50
2023-01-27T20:28:51.958Z,5.77
2023-01-27T20:31:22.816Z,6.23
2023-01-27T20:33:51.116Z,6.17
2023-01-27T20:36:19.710Z,6.90
2023-01-27T20:38:47.709Z,5.03
2023-01-27T20:41:16.651Z,7.33
2023-01-27T20:43:45.801Z,7.17
2023-01-27T20:46:15.281Z,7.77
2023-01-27T20:48:43.588Z,7.77
2023-01-27T20:51:13.192Z,7.87
2023-01-27T20:53:45.730Z,8.20
2023-01-27T20:56:14.557Z,9.67
2023-01-27T20:58:42.516Z,8.20
2023-01-27T21:01:12.757Z,8.23
2023-01-27T21:03:40.915Z,9.07
2023-01-27T21:06:09.513Z,8.67
2023-01-27T21:08:37.396Z,8.67
2023-01-27T21:11:06.017Z,7.70
2023-01-27T21:13:34.089Z,7.53
2023-01-27T21:16:02.384Z,8.13
2023-01-27T21:18:31.598Z,7.53
2023-01-27T21:21:02.646Z,7.27
2023-01-27T21:23:31.531Z,7.03
2023-01-27T21:26:04.078Z,6.70
2023-01-27T21:28:32.979Z,5.80
2023-01-27T21:31:05.795Z,5.37
2023-01-27T21:33:37.155Z,5.93
2023-01-27T21:36:05.048Z,6.13
2023-01-27T21:38:32.945Z,5.40
2023-01-27T21:41:05.080Z,3.00
2023-01-27T21:43:50.689Z,4.43
2023-01-27T21:46:18.988Z,4.27
2023-01-27T21:48:48.427Z,4.47
2023-01-27T21:51:16.522Z,4.23
2023-01-27T21:53:44.461Z,4.70
2023-01-27T21:56:12.471Z,4.73
2023-01-27T21:58:40.460Z,4.10
2023-01-27T22:01:10.805Z,4.83
2023-01-27T22:03:39.618Z,4.50
2023-01-27T22:06:09.786Z,4.23
2023-01-27T22:08:38.031Z,4.67
2023-01-27T22:11:06.104Z,3.80
2023-01-27T22:13:34.179Z,4.30
2023-01-27T22:16:01.993Z,3.80
2023-01-27T22:18:30.251Z,4.00
2023-01-27T22:20:58.163Z,4.43
2023-01-27T22:23:27.311Z,4.10
2023-01-27T22:25:55.255Z,4.20
2023-01-27T22:28:24.300Z,5.10
2023-01-27T22:30:52.332Z,4.23
2023-01-27T22:33:20.469Z,4.57
2023-01-27T22:35:48.312Z,4.80
2023-01-27T22:38:16.000Z,5.50
2023-01-27T22:40:45.351Z,5.50
2023-01-27T22:43:13.260Z,5.67
2023-01-27T22:45:41.709Z,5.03
2023-01-27T22:48:09.992Z,4.93
2023-01-27T22:50:40.616Z,5.07
2023-01-27T22:53:08.491Z,5.27
2023-01-27T22:55:36.540Z,6.03
2023-01-27T22:58:05.787Z,6.03
2023-01-27T23:00:33.880Z,5.27
2023-01-27T23:03:02.040Z,5.80
2023-01-27T23:05:29.733Z,6.17
2023-01-27T23:07:57.513Z,6.27
2023-01-27T23:10:25.230Z,6.23
2023-01-27T23:12:53.029Z,6.80
2023-01-27T23:15:22.369Z,5.53
2023-01-27T23:17:50.281Z,6.00
2023-01-27T23:20:18.364Z,5.97
2023-01-27T23:22:46.552Z,5.80
2023-01-27T23:25:14.525Z,5.57
2023-01-27T23:27:43.317Z,6.20
2023-01-27T23:30:12.409Z,5.17
2023-01-27T23:32:41.597Z,5.23
2023-01-27T23:35:09.691Z,5.37
2023-01-27T23:37:37.531Z,5.80
2023-01-27T23:40:05.658Z,6.10
2023-01-27T23:42:33.773Z,5.37
2023-01-27T23:45:01.532Z,5.87
2023-01-27T23:47:29.795Z,5.80
2023-01-27T23:49:59.502Z,6.03
2023-01-27T23:52:27.329Z,6.13
2023-01-27T23:54:55.141Z,5.57
2023-01-27T23:57:23.646Z,5.80
2023-01-27T23:59:51.608Z,4.70
